Time;durP1;ratioP1;P1;durP2;ratioP2;P2;SDS_P1;SDS_P2;PMS_P1;PMS_P2;Temp;Humidity;BMP_temperature;BMP_pressure;BME280_temperature;BME280_humidity;BME280_pressure;Samples;Min_cycle;Max_cycle;Signal;HPM_P1;HPM_P2
2024/02/10 00:01:48;;;;;;;1999.90;999.90;;;12.90;99.90;;;;;;5084909;28;20020;-76
2024/02/10 00:04:17;;;;;;;1999.90;999.90;;;12.90;99.90;;;;;;5078356;28;20029;-79
2024/02/10 00:06:45;;;;;;;1999.90;999.90;;;12.90;99.90;;;;;;5093370;28;20032;-76
2024/02/10 00:09:12;;;;;;;1999.90;999.90;;;13.00;99.90;;;;;;5093435;28;20028;-77
2024/02/10 00:11:38;;;;;;;1999.90;999.90;;;13.00;99.90;;;;;;5094006;28;20020;-77
2024/02/10 00:14:05;;;;;;;1999.90;999.90;;;13.00;99.90;;;;;;5093528;28;20028;-77
2024/02/10 00:16:33;;;;;;;1999.90;999.90;;;13.10;99.90;;;;;;5092200;28;20024;-77
2024/02/10 00:19:06;;;;;;;1999.90;999.90;;;13.10;99.90;;;;;;5095596;28;20549;-79
2024/02/10 00:21:34;;;;;;;;;;;13.10;99.90;;;;;;5093886;28;20047;-79
2024/02/10 00:24:00;;;;;;;1999.90;999.90;;;13.20;99.90;;;;;;5096824;28;19900;-79
2024/02/10 00:26:26;;;;;;;1999.90;999.90;;;13.20;99.90;;;;;;5093957;28;20032;-77
2024/02/10 00:28:55;;;;;;;1999.90;999.90;;;13.20;99.90;;;;;;5112316;28;20016;-79
2024/02/10 00:31:24;;;;;;;1999.90;999.90;;;13.30;99.90;;;;;;5114428;28;20020;-76
2024/02/10 00:33:54;;;;;;;1999.90;999.90;;;13.30;99.90;;;;;;5112499;28;20023;-79
2024/02/10 00:36:20;;;;;;;1999.90;999.90;;;13.30;99.90;;;;;;5112336;28;20123;-76
2024/02/10 00:38:46;;;;;;;1999.90;999.90;;;13.40;99.90;;;;;;5114737;28;20019;-80
2024/02/10 00:41:13;;;;;;;1999.90;999.90;;;13.40;99.90;;;;;;5113781;28;20436;-77
2024/02/10 00:43:42;;;;;;;1999.90;999.90;;;13.50;99.90;;;;;;5114588;28;20012;-77
2024/02/10 00:46:09;;;;;;;1999.90;999.90;;;13.50;99.90;;;;;;5112886;28;20054;-77
2024/02/10 00:48:37;;;;;;;1999.90;999.90;;;13.50;99.90;;;;;;5112010;28;20551;-77
2024/02/10 00:51:05;;;;;;;1999.90;999.90;;;13.60;99.90;;;;;;5121574;28;20024;-78
2024/02/10 00:53:39;;;;;;;1999.90;999.90;;;13.60;99.90;;;;;;5112205;28;20486;-78
2024/02/10 00:56:09;;;;;;;1999.90;999.90;;;13.70;99.90;;;;;;5115967;28;20036;-77
2024/02/10 00:58:35;;;;;;;1999.90;999.90;;;13.70;99.90;;;;;;5139204;28;20027;-78
2024/02/10 01:01:00;;;;;;;1999.90;999.90;;;13.70;99.90;;;;;;5116325;28;20164;-78
2024/02/10 01:03:26;;;;;;;1999.90;999.90;;;13.70;99.90;;;;;;5115396;28;20468;-78
2024/02/10 01:05:52;;;;;;;1999.90;999.90;;;13.80;99.90;;;;;;5116271;28;20051;-79
2024/02/10 01:08:22;;;;;;;1999.90;999.90;;;13.80;99.90;;;;;;5117161;28;20034;-78
2024/02/10 01:10:48;;;;;;;1999.90;999.90;;;13.80;99.90;;;;;;5117202;28;20512;-78
2024/02/10 01:13:14;;;;;;;1999.90;999.90;;;13.90;99.90;;;;;;5125736;28;20038;-81
2024/02/10 01:15:39;;;;;;;1999.90;999.90;;;13.90;99.90;;;;;;5117268;28;20098;-79
2024/02/10 01:18:05;;;;;;;1999.90;999.90;;;14.00;99.90;;;;;;5115544;28;20432;-81
2024/02/10 01:20:31;;;;;;;1999.90;999.90;;;14.00;99.90;;;;;;5130113;28;20031;-81
2024/02/10 01:22:59;;;;;;;1999.90;999.90;;;14.00;99.90;;;;;;5117112;28;20106;-79
2024/02/10 01:25:25;;;;;;;1999.90;999.90;;;14.10;99.90;;;;;;5115882;28;20497;-81
2024/02/10 01:27:51;;;;;;;1999.90;999.90;;;14.10;99.90;;;;;;5106750;28;20055;-80
2024/02/10 01:30:20;;;;;;;1999.90;999.90;;;14.20;99.90;;;;;;5096773;28;20012;-79
2024/02/10 01:32:46;;;;;;;1999.90;999.90;;;14.20;99.90;;;;;;5100979;28;20024;-79
2024/02/10 01:35:12;;;;;;;1999.90;999.90;;;14.30;99.90;;;;;;5112408;28;20020;-81
2024/02/10 01:37:40;;;;;;;1999.90;999.90;;;14.30;99.90;;;;;;5096500;28;20039;-79
2024/02/10 01:40:11;;;;;;;1999.90;999.90;;;14.40;99.90;;;;;;5098194;28;20048;-79
2024/02/10 01:42:37;;;;;;;1999.90;999.90;;;14.40;99.90;;;;;;5112082;28;20110;-80
2024/02/10 01:45:13;;;;;;;1999.90;999.90;;;14.50;99.90;;;;;;5111946;28;20016;-80
2024/02/10 01:47:44;;;;;;;1999.90;999.90;;;14.60;99.90;;;;;;5113066;28;20427;-81
2024/02/10 01:50:11;;;;;;;1999.90;999.90;;;14.60;99.90;;;;;;5096372;28;20009;-79
2024/02/10 01:52:38;;;;;;;1999.90;999.90;;;14.60;99.90;;;;;;5097848;28;20114;-81
2024/02/10 01:55:12;;;;;;;1999.90;999.90;;;14.70;99.90;;;;;;5112422;28;20059;-82
2024/02/10 01:57:38;;;;;;;1999.90;999.90;;;14.70;99.90;;;;;;5096594;28;20024;-82
2024/02/10 02:00:13;;;;;;;1999.90;999.90;;;14.80;99.90;;;;;;5095020;28;20031;-82
2024/02/10 02:02:39;;;;;;;1999.90;999.90;;;14.80;99.90;;;;;;5100556;28;20395;-80
2024/02/10 02:05:05;;;;;;;1999.90;999.90;;;14.90;99.90;;;;;;5095927;28;20627;-79
2024/02/10 02:07:32;;;;;;;1999.90;999.90;;;15.00;99.90;;;;;;5078110;28;20062;-80
2024/02/10 02:10:02;;;;;;;1999.90;999.90;;;15.10;99.90;;;;;;5077875;28;20027;-80
2024/02/10 02:12:28;;;;;;;1999.90;999.90;;;15.20;99.90;;;;;;5083362;28;20012;-80
2024/02/10 02:14:57;;;;;;;1999.90;999.90;;;15.20;99.90;;;;;;5082345;28;20028;-82
2024/02/10 02:17:22;;;;;;;1999.90;999.90;;;15.30;99.90;;;;;;5077757;28;20118;-82
2024/02/10 02:19:48;;;;;;;1999.90;999.90;;;15.30;99.90;;;;;;5078918;28;20048;-80
2024/02/10 02:22:14;;;;;;;1999.90;999.90;;;15.40;99.90;;;;;;5095768;28;20028;-80
2024/02/10 02:24:39;;;;;;;1999.90;999.90;;;15.50;99.90;;;;;;5096091;28;20024;-80
2024/02/10 02:27:09;;;;;;;1999.90;999.90;;;15.60;99.90;;;;;;5089888;28;20039;-80
2024/02/10 02:29:35;;;;;;;1999.90;999.90;;;15.70;99.90;;;;;;5116129;28;20026;-79
2024/02/10 02:32:00;;;;;;;1999.90;999.90;;;15.70;99.90;;;;;;5115419;28;20051;-80
2024/02/10 02:34:33;;;;;;;1999.90;999.90;;;15.70;99.90;;;;;;5104096;28;20029;-80
2024/02/10 02:37:02;;;;;;;1999.90;999.90;;;15.60;99.90;;;;;;5095105;28;20039;-81
2024/02/10 02:39:30;;;;;;;1999.90;999.90;;;15.60;99.90;;;;;;5095839;28;20028;-79
2024/02/10 02:41:59;;;;;;;1999.90;999.90;;;15.60;99.90;;;;;;5095609;28;20400;-81
2024/02/10 02:44:26;;;;;;;1999.90;999.90;;;15.50;99.90;;;;;;5096712;28;20372;-79
2024/02/10 02:46:54;;;;;;;1999.90;999.90;;;15.60;99.90;;;;;;5099566;28;20049;-81
2024/02/10 02:49:23;;;;;;;1999.90;999.90;;;15.50;99.90;;;;;;5095975;28;20039;-81
2024/02/10 02:51:52;;;;;;;1999.90;999.90;;;15.50;99.90;;;;;;5093840;28;20028;-79
2024/02/10 02:54:18;;;;;;;1999.90;999.90;;;15.40;99.90;;;;;;5096112;28;20047;-79
2024/02/10 02:56:44;;;;;;;1999.90;999.90;;;15.40;99.90;;;;;;5094945;28;20035;-80
2024/02/10 02:59:13;;;;;;;1999.90;999.90;;;15.40;99.90;;;;;;5094990;28;20086;-81
2024/02/10 03:01:40;;;;;;;1999.90;999.90;;;15.30;99.90;;;;;;5097900;28;20023;-80
2024/02/10 03:04:06;;;;;;;1999.90;999.90;;;15.30;99.90;;;;;;5097705;28;20085;-79
2024/02/10 03:06:32;;;;;;;1999.90;999.90;;;15.30;99.90;;;;;;5100308;28;20039;-81
2024/02/10 03:08:58;;;;;;;1999.90;999.90;;;15.30;99.90;;;;;;5096972;28;20023;-80
2024/02/10 03:11:26;;;;;;;1999.90;999.90;;;15.30;99.90;;;;;;5097245;28;20027;-80
2024/02/10 03:13:52;;;;;;;1999.90;999.90;;;15.30;99.90;;;;;;5115012;28;20028;-79
2024/02/10 03:16:19;;;;;;;1999.90;999.90;;;15.40;99.90;;;;;;5115088;28;20024;-80
2024/02/10 03:18:46;;;;;;;1999.90;999.90;;;15.40;99.90;;;;;;5096604;28;20112;-81
2024/02/10 03:21:13;;;;;;;1999.90;999.90;;;15.40;99.90;;;;;;5097326;28;20394;-80
2024/02/10 03:23:39;;;;;;;1999.90;999.90;;;15.40;99.90;;;;;;5096801;28;20024;-80
2024/02/10 03:26:05;;;;;;;1999.90;999.90;;;15.40;99.90;;;;;;5099762;28;20031;-80
2024/02/10 03:28:34;;;;;;;1999.90;999.90;;;15.40;99.90;;;;;;5100576;28;20485;-80
2024/02/10 03:31:04;;;;;;;1999.90;999.90;;;15.40;99.90;;;;;;5076447;28;20024;-79
2024/02/10 03:33:32;;;;;;;1999.90;999.90;;;15.40;99.90;;;;;;5108856;28;20044;-81
2024/02/10 03:36:02;;;;;;;1999.90;999.90;;;15.40;99.90;;;;;;5096424;28;20020;-79
2024/02/10 03:38:28;;;;;;;1999.90;999.90;;;15.40;99.90;;;;;;5114615;28;20016;-79
2024/02/10 03:40:54;;;;;;;1999.90;999.90;;;15.50;99.90;;;;;;5118357;28;20032;-80
2024/02/10 03:43:26;;;;;;;1999.90;999.90;;;15.50;99.90;;;;;;5114795;28;20053;-80
2024/02/10 03:45:52;;;;;;;1999.90;999.90;;;15.50;99.90;;;;;;5096437;28;20023;-79
2024/02/10 03:48:18;;;;;;;1999.90;999.90;;;15.60;99.90;;;;;;5113205;28;20016;-80
2024/02/10 03:50:43;;;;;;;1999.90;999.90;;;15.60;99.90;;;;;;5095848;28;20544;-82
2024/02/10 03:53:10;;;;;;;1999.90;999.90;;;15.60;99.90;;;;;;5095870;28;20398;-80
2024/02/10 03:55:38;;;;;;;1999.90;999.90;;;15.40;99.90;;;;;;5097700;28;20498;-79
2024/02/10 03:58:04;;;;;;;1999.90;999.90;;;15.20;99.90;;;;;;5095979;28;20019;-79
2024/02/10 04:00:36;;;;;;;1999.90;999.90;;;15.00;99.90;;;;;;5114585;28;20016;-79
2024/02/10 04:03:02;;;;;;;1999.90;999.90;;;14.70;99.90;;;;;;5117747;28;20024;-79
2024/02/10 04:05:34;;;;;;;1999.90;999.90;;;14.50;99.90;;;;;;5095521;28;20058;-79
2024/02/10 04:08:00;;;;;;;1999.90;999.90;;;14.40;99.90;;;;;;5096628;28;20030;-80
2024/02/10 04:10:28;;;;;;;1999.90;999.90;;;14.30;99.90;;;;;;5096236;28;20416;-81
2024/02/10 04:12:54;;;;;;;1999.90;999.90;;;14.10;99.90;;;;;;5083404;28;20038;-81
2024/02/10 04:15:20;;;;;;;1999.90;999.90;;;14.00;99.90;;;;;;5076717;28;20027;-79
2024/02/10 04:17:49;;;;;;;1999.90;999.90;;;13.90;99.90;;;;;;5076071;28;20024;-79
2024/02/10 04:20:19;;;;;;;1999.90;999.90;;;13.80;99.90;;;;;;5094117;28;20049;-79
2024/02/10 04:22:45;;;;;;;1999.90;999.90;;;13.70;99.90;;;;;;5085259;28;20433;-79
2024/02/10 04:25:12;;;;;;;1999.90;999.90;;;13.60;99.90;;;;;;5094027;28;20031;-79
2024/02/10 04:27:38;;;;;;;1999.90;999.90;;;13.50;99.90;;;;;;5076186;28;20119;-79
2024/02/10 04:30:04;;;;;;;1999.90;999.90;;;13.50;99.90;;;;;;5094383;28;20080;-80
2024/02/10 04:32:33;;;;;;;1999.90;999.90;;;13.40;99.90;;;;;;5097172;28;20096;-80
2024/02/10 04:34:59;;;;;;;1999.90;999.90;;;13.40;99.90;;;;;;5114215;28;20015;-79
2024/02/10 04:37:25;;;;;;;1999.90;999.90;;;13.40;99.90;;;;;;5114695;28;20039;-80
2024/02/10 04:39:51;;;;;;;1999.90;999.90;;;13.30;99.90;;;;;;5095907;28;20028;-79
2024/02/10 04:42:16;;;;;;;1999.90;999.90;;;13.20;99.90;;;;;;5121865;28;20035;-80
2024/02/10 04:44:48;;;;;;;1999.90;999.90;;;13.10;99.90;;;;;;5113851;28;20509;-79
2024/02/10 04:47:15;;;;;;;1999.90;999.90;;;13.10;99.90;;;;;;5095564;28;20042;-81
2024/02/10 04:49:41;;;;;;;1999.90;999.90;;;13.00;99.90;;;;;;5096379;28;20028;-79
2024/02/10 04:52:06;;;;;;;1999.90;999.90;;;13.00;99.90;;;;;;5095531;28;20024;-80
2024/02/10 04:54:32;;;;;;;1999.90;999.90;;;12.90;99.90;;;;;;5097396;28;20076;-79
2024/02/10 04:56:58;;;;;;;1999.90;999.90;;;12.90;99.90;;;;;;5095502;28;20065;-82
2024/02/10 04:59:25;;;;;;;1999.90;999.90;;;12.90;99.90;;;;;;5095081;28;20082;-80
2024/02/10 05:01:55;;;;;;;1999.90;999.90;;;12.80;99.90;;;;;;5090631;28;20536;-80
2024/02/10 05:04:21;;;;;;;1999.90;999.90;;;12.80;99.90;;;;;;5092991;28;20032;-79
2024/02/10 05:06:48;;;;;;;1999.90;999.90;;;12.80;99.90;;;;;;5113253;28;20023;-80
2024/02/10 05:09:14;;;;;;;1999.90;999.90;;;12.80;99.90;;;;;;5096323;28;20016;-81
2024/02/10 05:11:43;;;;;;;1999.90;999.90;;;12.80;99.90;;;;;;5113772;28;20031;-81
2024/02/10 05:14:10;;;;;;;1999.90;999.90;;;12.70;99.90;;;;;;5095263;28;20031;-80
2024/02/10 05:16:36;;;;;;;1999.90;999.90;;;12.70;99.90;;;;;;5126345;28;20024;-80
2024/02/10 05:19:02;;;;;;;1999.90;999.90;;;12.70;99.90;;;;;;5095396;28;20024;-80
2024/02/10 05:21:28;;;;;;;1999.90;999.90;;;12.70;99.90;;;;;;5095336;28;20032;-79
2024/02/10 05:24:07;;;;;;;1999.90;999.90;;;12.60;99.90;;;;;;5121328;28;20020;-81
2024/02/10 05:26:36;;;;;;;1999.90;999.90;;;12.60;99.90;;;;;;5095246;28;20059;-81
2024/02/10 05:29:06;;;;;;;1999.90;999.90;;;12.60;99.90;;;;;;5092883;28;20417;-80
2024/02/10 05:31:36;;;;;;;1999.90;999.90;;;12.60;99.90;;;;;;5094248;28;20020;-79
2024/02/10 05:34:06;;;;;;;1999.90;999.90;;;12.70;99.90;;;;;;5088694;28;20073;-80
2024/02/10 05:36:34;;;;;;;1999.90;999.90;;;12.70;99.90;;;;;;5078326;28;20036;-79
2024/02/10 05:39:09;;;;;;;1999.90;999.90;;;12.70;99.90;;;;;;5092749;28;20024;-79
2024/02/10 05:41:36;;;;;;;1999.90;999.90;;;12.70;99.90;;;;;;5093306;28;20032;-80
2024/02/10 05:44:02;;;;;;;1999.90;999.90;;;12.80;99.90;;;;;;5079925;28;20028;-81
2024/02/10 05:46:28;;;;;;;1999.90;999.90;;;12.80;99.90;;;;;;5096922;28;20475;-80
2024/02/10 05:48:54;;;;;;;1999.90;999.90;;;12.80;99.90;;;;;;5096607;28;20048;-79
2024/02/10 05:51:23;;;;;;;1999.90;999.90;;;12.90;99.90;;;;;;5097493;28;20077;-81
2024/02/10 05:53:49;;;;;;;1999.90;999.90;;;12.90;99.90;;;;;;5078298;28;20024;-80
2024/02/10 05:56:15;;;;;;;1999.90;999.90;;;12.90;99.90;;;;;;5095273;28;20025;-80
2024/02/10 05:58:44;;;;;;;1999.90;999.90;;;12.90;99.90;;;;;;5096929;28;20066;-80
2024/02/10 06:01:13;;;;;;;1999.90;999.90;;;12.90;99.90;;;;;;5096199;28;20035;-80
2024/02/10 06:03:40;;;;;;;1999.90;999.90;;;12.90;99.90;;;;;;5078897;28;20020;-80
2024/02/10 06:06:08;;;;;;;1999.90;999.90;;;12.90;99.90;;;;;;5091913;28;20052;-80
2024/02/10 06:08:37;;;;;;;1999.90;999.90;;;12.80;99.90;;;;;;5096051;28;20033;-80
2024/02/10 06:11:06;;;;;;;1999.90;999.90;;;12.80;99.90;;;;;;5098286;28;20085;-80
2024/02/10 06:13:32;;;;;;;1999.90;999.90;;;12.80;99.90;;;;;;5096144;28;20027;-80
2024/02/10 06:16:01;;;;;;;1999.90;999.90;;;12.70;99.90;;;;;;5097708;28;20012;-80
2024/02/10 06:18:30;;;;;;;1999.90;999.90;;;12.70;99.90;;;;;;5096291;28;20036;-80
2024/02/10 06:20:59;;;;;;;1999.90;999.90;;;12.70;99.90;;;;;;5098215;28;20086;-80
2024/02/10 06:23:25;;;;;;;1999.90;999.90;;;12.70;99.90;;;;;;5101053;28;20031;-80
2024/02/10 06:25:55;;;;;;;1999.90;999.90;;;12.70;99.90;;;;;;5095253;28;20490;-80
2024/02/10 06:28:21;;;;;;;1999.90;999.90;;;12.70;99.90;;;;;;5112006;28;20142;-80
2024/02/10 06:30:49;;;;;;;1999.90;999.90;;;12.70;99.90;;;;;;5117908;28;20034;-80
2024/02/10 06:33:26;;;;;;;1999.90;999.90;;;12.70;99.90;;;;;;5115300;28;20026;-82
2024/02/10 06:35:53;;;;;;;1999.90;999.90;;;12.70;99.90;;;;;;5114854;28;20038;-79
2024/02/10 06:38:19;;;;;;;1999.90;999.90;;;12.60;99.90;;;;;;5116630;28;20018;-79
2024/02/10 06:40:45;;;;;;;1999.90;999.90;;;12.70;99.90;;;;;;5114759;28;20118;-80
2024/02/10 06:43:12;;;;;;;1999.90;999.90;;;12.60;99.90;;;;;;5124429;28;20011;-79
2024/02/10 06:45:42;;;;;;;1999.90;999.90;;;12.70;99.90;;;;;;5099179;28;20024;-79
2024/02/10 06:48:11;;;;;;;1999.90;999.90;;;12.70;99.90;;;;;;5097096;28;20498;-79
2024/02/10 06:50:38;;;;;;;1999.90;999.90;;;12.80;99.90;;;;;;5116872;28;20023;-80
2024/02/10 06:53:04;;;;;;;1999.90;999.90;;;12.80;99.90;;;;;;5113776;28;20115;-80
2024/02/10 06:55:30;;;;;;;1999.90;999.90;;;12.80;99.90;;;;;;5113420;28;20520;-79
2024/02/10 06:57:56;;;;;;;1999.90;999.90;;;12.80;99.90;;;;;;5115476;28;20024;-81
2024/02/10 07:00:22;;;;;;;1999.90;999.90;;;12.90;99.90;;;;;;5113893;28;20030;-79
2024/02/10 07:02:49;;;;;;;1999.90;999.90;;;12.90;99.90;;;;;;5114957;28;20024;-79
2024/02/10 07:05:19;;;;;;;1999.90;999.90;;;12.90;99.90;;;;;;5097841;28;20113;-82
2024/02/10 07:07:48;;;;;;;1999.90;999.90;;;13.00;99.90;;;;;;5096592;28;20055;-79
2024/02/10 07:10:15;;;;;;;1999.90;999.90;;;13.00;99.90;;;;;;5097252;28;20028;-82
2024/02/10 07:12:53;;;;;;;1999.90;999.90;;;13.00;99.90;;;;;;5114763;28;20031;-79
2024/02/10 07:15:23;;;;;;;1999.90;999.90;;;13.00;99.90;;;;;;5096544;28;20056;-79
2024/02/10 07:17:50;;;;;;;1999.90;999.90;;;13.00;99.90;;;;;;5122348;28;20067;-82
2024/02/10 07:20:26;;;;;;;1999.90;999.90;;;13.00;99.90;;;;;;5114878;28;20031;-78
2024/02/10 07:22:57;;;;;;;1999.90;999.90;;;13.00;99.90;;;;;;5096416;28;20106;-79
2024/02/10 07:25:25;;;;;;;1999.90;999.90;;;13.00;99.90;;;;;;5120344;28;20379;-79
2024/02/10 07:27:51;;;;;;;1999.90;999.90;;;13.00;99.90;;;;;;5095889;28;20058;-81
2024/02/10 07:30:18;;;;;;;1999.90;999.90;;;13.00;99.90;;;;;;5114609;28;20027;-79
2024/02/10 07:32:44;;;;;;;1999.90;999.90;;;13.00;99.90;;;;;;5089637;28;20023;-79
2024/02/10 07:35:10;;;;;;;1999.90;999.90;;;12.90;99.90;;;;;;5094410;28;20020;-79
2024/02/10 07:37:36;;;;;;;1999.90;999.90;;;12.90;99.90;;;;;;5077930;28;20012;-78
2024/02/10 07:40:03;;;;;;;1999.90;999.90;;;12.80;99.90;;;;;;5094125;28;20059;-79
2024/02/10 07:42:29;;;;;;;1999.90;999.90;;;12.80;99.90;;;;;;5094267;28;20024;-79
2024/02/10 07:44:55;;;;;;;1999.90;999.90;;;12.70;99.90;;;;;;5094437;28;20035;-78
2024/02/10 07:47:27;;;;;;;1999.90;999.90;;;12.60;99.90;;;;;;5093852;28;20024;-79
2024/02/10 07:49:53;;;;;;;1999.90;999.90;;;12.50;99.90;;;;;;5093455;28;20042;-78
2024/02/10 07:52:22;;;;;;;1999.90;999.90;;;12.40;99.90;;;;;;5106563;28;20028;-80
2024/02/10 07:54:51;;;;;;;1999.90;999.90;;;12.30;99.90;;;;;;5094424;28;20103;-81
2024/02/10 07:57:20;;;;;;;1999.90;999.90;;;12.20;99.90;;;;;;5094019;28;20024;-81
2024/02/10 07:59:50;;;;;;;1999.90;999.90;;;12.10;99.90;;;;;;5095761;28;20028;-81
2024/02/10 08:02:21;;;;;;;1999.90;999.90;;;12.00;99.90;;;;;;5075294;28;20442;-78
2024/02/10 08:04:51;;;;;;;1999.90;999.90;;;11.90;99.90;;;;;;5080033;28;20122;-81
2024/02/10 08:07:18;;;;;;;1999.90;999.90;;;11.80;99.90;;;;;;5114051;28;20038;-77
2024/02/10 08:09:44;;;;;;;1999.90;999.90;;;11.50;99.90;;;;;;5113718;28;20018;-81
2024/02/10 08:12:10;;;;;;;1999.90;999.90;;;11.30;99.90;;;;;;5109007;28;20016;-80
2024/02/10 08:14:36;;;;;;;1999.90;999.90;;;11.10;99.90;;;;;;5113880;28;20212;-81
2024/02/10 08:17:07;;;;;;;1999.90;999.90;;;11.00;99.90;;;;;;5095598;28;20020;-78
2024/02/10 08:19:35;;;;;;;1999.90;999.90;;;10.80;99.90;;;;;;5104784;28;20402;-78
2024/02/10 08:22:02;;;;;;;1999.90;999.90;;;10.70;99.90;;;;;;5095226;28;20143;-78
2024/02/10 08:24:31;;;;;;;1999.90;999.90;;;10.60;99.90;;;;;;5113721;28;20023;-81
2024/02/10 08:26:56;;;;;;;1999.90;999.90;;;10.50;99.90;;;;;;5096440;28;20078;-77
2024/02/10 08:29:23;;;;;;;1999.90;999.90;;;10.50;99.90;;;;;;5113805;28;20055;-77
2024/02/10 08:31:50;;;;;;;1999.90;999.90;;;10.50;99.90;;;;;;5114240;28;20022;-77
2024/02/10 08:34:16;;;;;;;1999.90;999.90;;;10.30;99.90;;;;;;5115390;28;20026;-81
2024/02/10 08:36:41;;;;;;;1999.90;999.90;;;10.20;99.90;;;;;;5095417;28;20118;-77
2024/02/10 08:39:07;;;;;;;1999.90;999.90;;;10.10;99.90;;;;;;5114198;28;20024;-77
2024/02/10 08:41:33;;;;;;;1999.90;999.90;;;10.00;99.90;;;;;;5095208;28;20034;-77
2024/02/10 08:43:59;;;;;;;1999.90;999.90;;;9.90;99.90;;;;;;5095306;28;20024;-79
2024/02/10 08:46:25;;;;;;;1999.90;999.90;;;9.90;99.90;;;;;;5097474;28;20505;-77
2024/02/10 08:48:52;;;;;;;1999.90;999.90;;;9.80;99.90;;;;;;5094523;28;20040;-77
2024/02/10 08:51:17;;;;;;;1999.90;999.90;;;9.90;99.90;;;;;;5115165;28;20103;-80
2024/02/10 08:53:43;;;;;;;1999.90;999.90;;;9.90;99.90;;;;;;5095201;28;20063;-77
2024/02/10 08:56:11;;;;;;;1999.90;999.90;;;9.90;99.90;;;;;;5113578;28;20451;-79
2024/02/10 08:58:40;;;;;;;1999.90;999.90;;;9.90;99.90;;;;;;5114164;28;20026;-80
2024/02/10 09:01:15;;;;;;;1999.90;999.90;;;10.00;99.90;;;;;;5094641;28;20482;-77
2024/02/10 09:03:49;;;;;;;1999.90;999.90;;;10.00;99.90;;;;;;5095300;28;20499;-79
2024/02/10 09:06:15;;;;;;;1999.90;999.90;;;10.10;99.90;;;;;;5097493;28;20055;-77
2024/02/10 09:08:43;;;;;;;1999.90;999.90;;;10.20;99.90;;;;;;5112916;28;20027;-77
2024/02/10 09:11:08;;;;;;;1999.90;999.90;;;10.30;99.90;;;;;;5113574;28;20012;-80
2024/02/10 09:13:34;;;;;;;1999.90;999.90;;;10.30;99.90;;;;;;5096848;28;20127;-77
2024/02/10 09:16:00;;;;;;;1999.90;999.90;;;10.40;99.90;;;;;;5113798;28;20024;-76
2024/02/10 09:18:25;;;;;;;1999.90;999.90;;;10.50;99.90;;;;;;5099033;28;20030;-77
2024/02/10 09:20:51;;;;;;;1999.90;999.90;;;10.50;99.90;;;;;;5117245;28;20027;-76
2024/02/10 09:23:17;;;;;;;1999.90;999.90;;;10.60;99.90;;;;;;5098797;28;20019;-79
2024/02/10 09:25:42;;;;;;;1999.90;999.90;;;10.70;99.90;;;;;;5119147;28;20024;-79
2024/02/10 09:28:08;;;;;;;1999.90;999.90;;;10.70;99.90;;;;;;5116726;28;20032;-79
2024/02/10 09:30:35;;;;;;;1999.90;999.90;;;10.80;99.90;;;;;;5098556;28;20031;-77
2024/02/10 09:33:03;;;;;;;1999.90;999.90;;;10.90;99.90;;;;;;5116151;28;20023;-77
2024/02/10 09:35:39;;;;;;;1999.90;999.90;;;11.00;99.90;;;;;;5098669;28;20023;-79
2024/02/10 09:38:07;;;;;;;1999.90;999.90;;;11.00;99.90;;;;;;5116982;28;20031;-79
2024/02/10 09:40:32;;;;;;;1999.90;999.90;;;11.10;99.90;;;;;;5117234;28;20459;-76
2024/02/10 09:43:04;;;;;;;1999.90;999.90;;;11.30;99.90;;;;;;5116228;28;20398;-78
2024/02/10 09:45:34;;;;;;;1999.90;999.90;;;11.30;99.90;;;;;;5109694;28;20011;-77
2024/02/10 09:47:59;;;;;;;1999.90;999.90;;;11.30;99.90;;;;;;5118062;28;20028;-76
2024/02/10 09:50:32;;;;;;;1999.90;999.90;;;11.40;99.90;;;;;;5116666;28;20043;-76
2024/02/10 09:52:58;;;;;;;1999.90;999.90;;;11.50;99.90;;;;;;5116877;28;20452;-76
2024/02/10 09:55:24;;;;;;;1999.90;999.90;;;11.60;99.90;;;;;;5116255;28;20383;-76
2024/02/10 09:57:53;;;;;;;1999.90;999.90;;;11.60;99.90;;;;;;5116439;28;20132;-76
2024/02/10 10:00:19;;;;;;;1999.90;999.90;;;11.50;99.90;;;;;;5117887;28;20065;-76
2024/02/10 10:02:50;;;;;;;1999.90;999.90;;;11.50;99.90;;;;;;5096760;28;20020;-76
2024/02/10 10:05:20;;;;;;;1999.90;999.90;;;11.40;99.90;;;;;;5116075;28;20052;-79
2024/02/10 10:07:51;;;;;;;1999.90;999.90;;;11.40;99.90;;;;;;5119822;28;20073;-76
2024/02/10 10:10:20;;;;;;;1999.90;999.90;;;11.50;99.90;;;;;;5097749;28;20058;-76
2024/02/10 10:12:46;;;;;;;1999.90;999.90;;;11.60;99.90;;;;;;5116207;28;20102;-76
2024/02/10 10:15:15;;;;;;;1999.90;999.90;;;11.70;99.90;;;;;;5098628;28;20094;-77
2024/02/10 10:17:41;;;;;;;1999.90;999.90;;;11.70;99.90;;;;;;5098332;28;20024;-76
2024/02/10 10:20:09;;;;;;;1999.90;999.90;;;11.70;99.90;;;;;;5116190;28;20503;-80
2024/02/10 10:22:38;;;;;;;1999.90;999.90;;;11.50;99.90;;;;;;5097267;28;20027;-76
2024/02/10 10:25:05;;;;;;;1999.90;999.90;;;11.60;99.90;;;;;;5097583;28;20023;-76
2024/02/10 10:27:31;;;;;;;1999.90;999.90;;;11.60;99.90;;;;;;5126525;27;20042;-77
2024/02/10 10:29:57;;;;;;;1999.90;999.90;;;11.70;99.90;;;;;;5136014;27;20482;-76
2024/02/10 10:32:27;;;;;;;1999.90;999.90;;;11.70;99.90;;;;;;5131784;27;20028;-77
2024/02/10 10:34:57;;;;;;;1999.90;999.90;;;11.80;99.90;;;;;;5116013;28;20032;-76
2024/02/10 10:37:26;;;;;;;1999.90;999.90;;;11.90;99.90;;;;;;5115698;28;20024;-76
2024/02/10 10:39:53;;;;;;;1999.90;999.90;;;12.00;99.90;;;;;;5117237;28;20038;-76
2024/02/10 10:42:22;;;;;;;1999.90;999.90;;;12.10;99.90;;;;;;5097280;28;20024;-76
2024/02/10 10:44:51;;;;;;;1999.90;999.90;;;12.20;99.90;;;;;;5112191;28;20024;-79
2024/02/10 10:47:23;;;;;;;1999.90;999.90;;;12.20;99.90;;;;;;5082843;28;20035;-76
2024/02/10 10:49:50;;;;;;;1999.90;999.90;;;12.40;99.90;;;;;;5076770;28;20115;-80
2024/02/10 10:52:18;;;;;;;1999.90;999.90;;;12.30;99.90;;;;;;5076787;28;20022;-76
2024/02/10 10:54:45;;;;;;;1999.90;999.90;;;12.40;99.90;;;;;;5076970;28;20021;-75
2024/02/10 10:57:20;;;;;;;1999.90;999.90;;;12.50;99.90;;;;;;5094809;28;20107;-79
2024/02/10 10:59:59;;;;;;;1999.90;999.90;;;12.40;99.90;;;;;;5078426;28;20046;-76
2024/02/10 11:02:28;;;;;;;1999.90;999.90;;;12.70;99.90;;;;;;5107680;28;20023;-80
2024/02/10 11:05:20;;;;;;;1999.90;999.90;;;12.70;99.90;;;;;;5096312;28;20430;-76
2024/02/10 11:07:49;;;;;;;1999.90;999.90;;;12.50;99.90;;;;;;5097128;28;20019;-80
2024/02/10 11:10:40;;;;;;;1999.90;999.90;;;12.60;99.90;;;;;;5114884;28;20028;-75
2024/02/10 11:13:08;;;;;;;1999.90;999.90;;;12.50;99.90;;;;;;5096707;28;20490;-75
2024/02/10 11:15:41;;;;;;;1999.90;999.90;;;12.60;99.90;;;;;;5096893;28;20023;-76
2024/02/10 11:18:20;;;;;;;1999.90;999.90;;;12.80;99.90;;;;;;5114665;28;20020;-79
2024/02/10 11:20:45;;;;;;;1999.90;999.90;;;12.80;99.90;;;;;;5098288;28;20036;-77
2024/02/10 11:23:21;;;;;;;1999.90;999.90;;;13.00;99.90;;;;;;5114976;28;20027;-76
2024/02/10 11:25:52;;;;;;;1999.90;999.90;;;13.00;99.90;;;;;;5096492;28;20028;-76
2024/02/10 11:28:21;;;;;;;1999.90;999.90;;;13.00;99.90;;;;;;5111142;27;20030;-76
2024/02/10 11:30:48;;;;;;;1999.90;999.90;;;13.00;99.90;;;;;;5134533;27;20019;-76
2024/02/10 11:33:23;;;;;;;1999.90;999.90;;;12.90;99.90;;;;;;5102040;28;20025;-79
2024/02/10 11:35:50;;;;;;;1999.90;999.90;;;12.80;99.90;;;;;;5094581;28;20107;-80
2024/02/10 11:38:16;;;;;;;1999.90;999.90;;;12.80;99.90;;;;;;5092817;28;20433;-79
2024/02/10 11:40:42;;;;;;;1999.90;999.90;;;12.80;99.90;;;;;;5096202;28;20020;-80
2024/02/10 11:43:10;;;;;;;1999.90;999.90;;;12.80;99.90;;;;;;5094177;28;20031;-80
2024/02/10 11:45:37;;;;;;;1999.90;999.90;;;12.80;99.90;;;;;;5092669;28;20032;-79
2024/02/10 11:48:08;;;;;;;1999.90;999.90;;;13.00;99.90;;;;;;5093993;28;20028;-79
2024/02/10 11:50:42;;;;;;;1999.90;999.90;;;13.30;99.90;;;;;;5092543;28;20119;-80
2024/02/10 11:53:11;;;;;;;1999.90;999.90;;;13.30;99.90;;;;;;5094391;28;20019;-76
2024/02/10 11:55:41;;;;;;;1999.90;999.90;;;13.10;99.90;;;;;;5095327;28;20051;-81
2024/02/10 11:58:10;;;;;;;1999.90;999.90;;;13.00;99.90;;;;;;5093611;28;20028;-80
2024/02/10 12:00:36;;;;;;;1999.90;999.90;;;13.00;99.90;;;;;;5084920;28;20034;-80
2024/02/10 12:03:02;;;;;;;1999.90;999.90;;;12.90;99.90;;;;;;5093571;28;20024;-80